Time;durP1;ratioP1;P1;durP2;ratioP2;P2;SDS_P1;SDS_P2;PMS_P1;PMS_P2;Temp;Humidity;BMP_temperature;BMP_pressure;BME280_temperature;BME280_humidity;BME280_pressure;Samples;Min_cycle;Max_cycle;Signal;HPM_P1;HPM_P2
2022/01/20 00:01:59;;;;;;;64.97;58.45;;;;;;;-3.72;100.00;101892.56;5093138;28;20127;-80
2022/01/20 00:04:35;;;;;;;66.22;59.38;;;;;;;-3.80;100.00;101881.75;5087681;28;20139;-80
2022/01/20 00:23:06;;;;;;;67.95;61.90;;;;;;;-3.37;100.00;101874.97;5084837;28;20051;-81
2022/01/20 00:26:28;;;;;;;58.90;53.83;;;;;;;-4.13;100.00;101869.69;5080392;28;20106;-79
2022/01/20 00:28:59;;;;;;;54.42;49.47;;;;;;;-3.99;100.00;101866.34;5084174;28;20099;-81
2022/01/20 00:31:43;;;;;;;60.22;55.13;;;;;;;-4.02;100.00;101864.75;5092586;28;20044;-81
2022/01/20 00:34:14;;;;;;;60.25;54.88;;;;;;;-3.89;100.00;101864.09;5085777;28;20040;-80
2022/01/20 00:39:28;;;;;;;58.70;53.65;;;;;;;-3.79;100.00;101847.91;5084772;28;20050;-81
2022/01/20 00:41:55;;;;;;;56.33;50.95;;;;;;;-3.23;100.00;101848.22;5082944;28;20048;-80
2022/01/20 00:44:22;;;;;;;52.72;48.78;;;;;;;-2.94;100.00;101846.50;5088636;28;20052;-80
2022/01/20 00:46:49;;;;;;;56.15;52.13;;;;;;;-2.85;100.00;101847.72;5092976;28;20496;-80
2022/01/20 00:49:16;;;;;;;57.15;52.80;;;;;;;-3.08;100.00;101851.69;5085260;28;20114;-80
2022/01/20 00:51:43;;;;;;;56.60;52.33;;;;;;;-3.64;100.00;101842.78;5080120;28;20477;-82
2022/01/20 00:54:10;;;;;;;69.28;61.80;;;;;;;-3.69;100.00;101841.28;5085985;28;20044;-81
2022/01/20 00:56:38;;;;;;;94.47;64.78;;;;;;;-3.81;100.00;101838.53;5080545;28;20469;-80
2022/01/20 00:59:04;;;;;;;83.80;64.28;;;;;;;-3.97;100.00;101825.56;5084120;28;20044;-81
2022/01/20 01:01:31;;;;;;;80.93;63.35;;;;;;;-4.35;100.00;101827.66;5077315;28;20044;-80
2022/01/20 01:03:58;;;;;;;110.82;71.03;;;;;;;-4.22;100.00;101821.72;5081878;28;20044;-82
2022/01/20 01:06:38;;;;;;;95.40;64.60;;;;;;;-4.23;100.00;101820.06;5079665;28;20048;-82
2022/01/20 01:09:05;;;;;;;81.07;66.20;;;;;;;-4.75;100.00;101809.00;5088306;28;20044;-81
2022/01/20 01:11:32;;;;;;;81.57;63.97;;;;;;;-4.53;100.00;101809.56;5083858;28;20041;-80
2022/01/20 01:14:03;;;;;;;70.20;62.55;;;;;;;-4.81;100.00;101794.63;5085062;28;20053;-79
2022/01/20 01:16:42;;;;;;;70.30;59.78;;;;;;;-4.64;100.00;101793.72;5083366;28;20118;-80
2022/01/20 01:22:04;;;;;;;68.80;61.95;;;;;;;-4.49;100.00;101787.72;5074302;28;20059;-80
2022/01/20 01:24:31;;;;;;;59.08;54.40;;;;;;;-3.58;100.00;101782.69;5084852;28;20045;-83
2022/01/20 01:26:59;;;;;;;58.65;53.55;;;;;;;-3.89;100.00;101774.06;5082621;28;20089;-80
2022/01/20 01:29:46;;;;;;;63.30;57.13;;;;;;;-4.40;100.00;101763.06;5090815;28;20121;-81
2022/01/20 01:32:16;;;;;;;69.63;62.22;;;;;;;-4.27;100.00;101751.06;5090629;28;20097;-81
2022/01/20 01:34:48;;;;;;;78.63;64.60;;;;;;;-5.02;100.00;101746.50;5090918;28;20158;-81
2022/01/20 01:37:35;;;;;;;;;;;;;;;-4.10;100.00;101739.78;5088032;28;20040;-80
2022/01/20 01:40:06;;;;;;;665.95;293.85;;;;;;;-3.95;100.00;101740.66;5089847;28;20349;-81
2022/01/20 01:42:40;;;;;;;134.23;86.38;;;;;;;-4.85;100.00;101743.84;5087419;28;21742;-81
2022/01/20 01:45:10;;;;;;;79.82;64.75;;;;;;;-5.10;100.00;101737.38;5078434;28;20045;-81
2022/01/20 01:47:37;;;;;;;302.63;140.75;;;;;;;-4.21;100.00;101727.38;5079028;28;20048;-81
2022/01/20 01:50:05;;;;;;;149.90;91.82;;;;;;;-4.72;100.00;101737.13;5083689;28;20108;-81
2022/01/20 01:52:32;;;;;;;185.85;97.03;;;;;;;-5.01;100.00;101728.28;5092601;28;20113;-80
2022/01/20 01:54:58;;;;;;;116.13;80.32;;;;;;;-4.72;100.00;101731.06;5090730;28;20041;-80
2022/01/20 01:57:26;;;;;;;133.80;88.57;;;;;;;-4.99;100.00;101736.81;5087082;28;20082;-80
2022/01/20 01:59:53;;;;;;;159.50;93.30;;;;;;;-4.92;100.00;101732.16;5095626;28;20051;-81
2022/01/20 02:02:23;;;;;;;86.85;66.10;;;;;;;-4.82;100.00;101728.16;5091619;28;20114;-79
2022/01/20 02:04:51;;;;;;;56.83;51.38;;;;;;;-5.34;100.00;101729.13;5084654;28;20079;-80
2022/01/20 02:18:37;;;;;;;66.35;60.05;;;;;;;-4.09;100.00;101689.53;5087440;28;20058;-80
2022/01/20 02:21:06;;;;;;;190.65;96.88;;;;;;;-5.25;100.00;101685.53;5085642;28;20473;-80
2022/01/20 02:23:34;;;;;;;244.05;110.10;;;;;;;-5.17;100.00;101681.63;5090005;28;20123;-81
2022/01/20 02:26:01;;;;;;;333.42;141.52;;;;;;;-5.08;100.00;101683.72;5089528;28;20060;-81
2022/01/20 02:28:28;;;;;;;207.32;112.60;;;;;;;-4.95;100.00;101683.91;5088904;28;20093;-80
2022/01/20 02:30:56;;;;;;;124.50;76.53;;;;;;;-4.99;100.00;101678.97;5096309;28;20089;-80
2022/01/20 02:33:25;;;;;;;89.88;66.13;;;;;;;-5.14;100.00;101678.88;5087336;28;20468;-81
2022/01/20 02:35:54;;;;;;;134.93;87.50;;;;;;;-5.23;100.00;101673.34;5088423;28;20052;-80
2022/01/20 02:38:29;;;;;;;84.88;71.43;;;;;;;-5.31;100.00;101671.97;5090067;28;20044;-79
2022/01/20 02:46:24;;;;;;;72.57;65.18;;;;;;;-4.83;100.00;101656.50;5076245;28;20483;-81
2022/01/20 02:48:51;;;;;;;74.35;65.97;;;;;;;-5.06;100.00;101652.53;5081131;28;20048;-80
2022/01/20 02:51:18;;;;;;;80.28;65.65;;;;;;;-4.99;100.00;101648.72;5085009;28;20097;-81
2022/01/20 02:53:46;;;;;;;79.78;63.08;;;;;;;-4.76;100.00;101644.88;5091898;28;20401;-81
2022/01/20 02:56:13;;;;;;;70.50;63.30;;;;;;;-5.13;100.00;101639.09;5088931;28;20051;-80
2022/01/20 02:58:41;;;;;;;73.43;65.85;;;;;;;-4.99;100.00;101640.94;5085347;28;20041;-80
2022/01/20 03:01:15;;;;;;;63.60;56.95;;;;;;;-5.15;100.00;101635.72;5173829;22;20064;-82
2022/01/20 03:03:41;;;;;;;63.53;56.92;;;;;;;-5.47;100.00;101631.44;5028509;28;20046;-80
2022/01/20 03:06:08;;;;;;;68.75;62.13;;;;;;;-5.17;100.00;101626.41;5035611;28;20080;-81
2022/01/20 03:08:36;;;;;;;61.70;55.63;;;;;;;-5.80;100.00;101625.31;5025090;28;20049;-79
2022/01/20 03:11:04;;;;;;;67.72;61.22;;;;;;;-5.24;100.00;101607.72;5021636;28;20482;-80
2022/01/20 03:13:31;;;;;;;72.47;65.90;;;;;;;-5.30;100.00;101605.47;5025519;28;20449;-81
2022/01/20 03:15:58;;;;;;;59.72;54.38;;;;;;;-5.83;100.00;101606.53;5039343;28;20530;-80
2022/01/20 03:18:24;;;;;;;67.50;61.28;;;;;;;-5.48;100.00;101611.63;5029114;28;20045;-80
2022/01/20 03:20:51;;;;;;;72.10;65.60;;;;;;;-5.66;100.00;101605.66;5018784;28;20466;-80
2022/01/20 03:23:18;;;;;;;68.20;61.83;;;;;;;-5.48;100.00;101609.88;5025281;28;20107;-80
2022/01/20 03:25:45;;;;;;;63.45;57.38;;;;;;;-5.75;100.00;101612.13;5024676;28;20050;-80
2022/01/20 03:28:14;;;;;;;64.07;57.80;;;;;;;-5.50;100.00;101595.34;5023808;28;20045;-79
2022/01/20 03:30:41;;;;;;;66.35;60.15;;;;;;;-5.66;100.00;101598.72;5031899;28;20041;-81
2022/01/20 03:33:07;;;;;;;70.18;63.40;;;;;;;-5.54;100.00;101608.47;5028135;28;20061;-81
2022/01/20 03:35:34;;;;;;;68.80;61.83;;;;;;;-5.26;100.00;101601.81;5024174;28;20046;-80
2022/01/20 03:38:01;;;;;;;73.03;65.00;;;;;;;-5.37;100.00;101607.56;5027632;28;20128;-81
2022/01/20 03:40:28;;;;;;;74.45;66.88;;;;;;;-5.84;100.00;101592.78;5021356;28;20107;-79
2022/01/20 03:42:55;;;;;;;96.63;77.93;;;;;;;-5.69;100.00;101601.47;5031511;28;20555;-80
2022/01/20 03:45:25;;;;;;;96.22;81.55;;;;;;;-5.81;100.00;101594.34;5032674;28;20045;-80
2022/01/20 03:47:55;;;;;;;84.10;75.50;;;;;;;-5.99;100.00;101601.31;5039134;28;20429;-80
2022/01/20 03:53:06;;;;;;;70.70;63.88;;;;;;;-6.43;100.00;101595.78;5022081;28;20192;-80
2022/01/20 03:55:33;;;;;;;77.95;70.03;;;;;;;-6.38;100.00;101597.25;5024721;28;20049;-80
2022/01/20 03:58:00;;;;;;;85.72;77.20;;;;;;;-6.22;100.00;101594.72;5026537;28;20465;-81
2022/01/20 04:00:28;;;;;;;80.22;71.45;;;;;;;-6.11;100.00;101591.59;5032699;28;20496;-79
2022/01/20 04:02:55;;;;;;;71.35;64.50;;;;;;;-6.64;100.00;101590.75;5034984;28;20065;-80
2022/01/20 04:05:22;;;;;;;65.65;59.45;;;;;;;-6.62;100.00;101595.84;5024141;28;20462;-81
2022/01/20 04:07:48;;;;;;;73.95;66.55;;;;;;;-6.71;100.00;101594.53;5020770;28;20054;-80
2022/01/20 04:10:15;;;;;;;92.90;82.80;;;;;;;-6.49;100.00;101595.16;5024412;28;20046;-82
2022/01/20 04:12:42;;;;;;;123.55;81.05;;;;;;;-6.70;100.00;101585.88;5023072;28;20115;-80
2022/01/20 04:15:09;;;;;;;79.78;68.32;;;;;;;-6.61;100.00;101590.59;5034357;28;20477;-80
2022/01/20 04:17:41;;;;;;;70.22;58.20;;;;;;;-6.61;100.00;101584.59;5031431;28;20503;-80
2022/01/20 04:20:41;;;;;;;110.47;78.35;;;;;;;-6.79;100.00;101584.56;5106913;27;20393;-81
2022/01/20 04:23:09;;;;;;;99.82;75.03;;;;;;;-6.78;100.00;101588.81;5091450;28;20110;-80
2022/01/20 04:25:36;;;;;;;136.93;89.15;;;;;;;-6.83;100.00;101579.63;5091178;28;20044;-80
2022/01/20 04:28:03;;;;;;;130.18;88.85;;;;;;;-6.76;100.00;101581.00;5082170;28;20078;-81
2022/01/20 04:30:30;;;;;;;84.63;68.20;;;;;;;-6.98;100.00;101574.25;5091299;28;20048;-81
2022/01/20 04:32:57;;;;;;;91.55;66.28;;;;;;;-6.70;100.00;101578.13;5091137;28;20052;-80
2022/01/20 04:35:24;;;;;;;74.07;59.45;;;;;;;-6.62;100.00;101590.69;5090649;28;20045;-81
2022/01/20 04:37:54;;;;;;;74.25;62.42;;;;;;;-6.97;100.00;101578.50;5090803;28;20078;-81
2022/01/20 04:40:22;;;;;;;75.63;61.05;;;;;;;-6.85;100.00;101574.50;5090424;28;20116;-81
2022/01/20 04:42:50;;;;;;;69.72;59.63;;;;;;;-6.66;100.00;101578.78;5090593;28;20136;-80
2022/01/20 04:45:23;;;;;;;69.95;57.60;;;;;;;-6.70;100.00;101572.94;5090982;28;20106;-81
2022/01/20 04:47:57;;;;;;;69.50;57.42;;;;;;;-6.49;100.00;101566.72;5089138;28;20056;-82
2022/01/20 04:58:37;;;;;;;93.63;60.60;;;;;;;-6.56;100.00;101546.44;5090871;28;20051;-81
2022/01/20 05:01:04;;;;;;;89.78;60.33;;;;;;;-6.63;100.00;101551.06;5090689;28;20052;-81
2022/01/20 05:03:31;;;;;;;84.20;61.30;;;;;;;-6.61;100.00;101551.81;5090544;28;20093;-81
2022/01/20 05:05:58;;;;;;;91.82;63.83;;;;;;;-6.81;100.00;101544.19;5090080;28;20059;-81
2022/01/20 05:08:29;;;;;;;87.60;63.00;;;;;;;-6.59;100.00;101549.19;5090031;28;20048;-80
2022/01/20 05:10:55;;;;;;;94.35;65.63;;;;;;;-6.67;100.00;101546.97;5090487;28;20044;-81
2022/01/20 05:13:26;;;;;;;82.90;59.67;;;;;;;-7.11;100.00;101537.00;5089543;28;20048;-81
2022/01/20 05:15:52;;;;;;;70.97;56.58;;;;;;;-6.55;100.00;101542.94;5089971;28;20131;-81
2022/01/20 05:18:19;;;;;;;70.65;57.55;;;;;;;-6.32;100.00;101537.47;5089633;28;20052;-81
2022/01/20 05:20:46;;;;;;;84.38;58.80;;;;;;;-6.18;100.00;101538.50;5089884;28;20044;-80
2022/01/20 05:23:13;;;;;;;94.45;60.63;;;;;;;-6.52;100.00;101538.44;5089893;28;20480;-80
2022/01/20 05:25:41;;;;;;;102.32;67.72;;;;;;;-6.72;100.00;101546.34;5089651;28;20059;-81
2022/01/20 05:28:08;;;;;;;110.95;66.82;;;;;;;-6.38;100.00;101542.94;5089876;28;20109;-81
2022/01/20 05:30:34;;;;;;;87.18;62.78;;;;;;;-6.85;100.00;101528.00;5074647;28;20045;-81
2022/01/20 05:33:02;;;;;;;89.65;62.40;;;;;;;-6.33;100.00;101535.78;5068931;28;20053;-81
2022/01/20 05:35:30;;;;;;;94.65;65.18;;;;;;;-6.54;100.00;101529.09;5076545;28;20041;-81
2022/01/20 05:37:57;;;;;;;76.60;60.47;;;;;;;-6.09;100.00;101535.47;5076304;28;20122;-80
2022/01/20 05:40:24;;;;;;;80.65;60.42;;;;;;;-6.60;100.00;101531.97;5068215;28;20502;-80
2022/01/20 05:42:53;;;;;;;84.05;63.35;;;;;;;-6.40;100.00;101538.75;5075452;28;20110;-82
2022/01/20 05:45:22;;;;;;;69.28;55.70;;;;;;;-6.79;100.00;101534.63;5076676;28;20106;-80
2022/01/20 05:47:58;;;;;;;59.92;53.00;;;;;;;-6.16;100.00;101537.53;5076859;28;20048;-81
2022/01/20 05:50:25;;;;;;;77.80;56.22;;;;;;;-6.67;100.00;101549.53;5075838;28;20136;-81
2022/01/20 05:52:52;;;;;;;66.80;56.90;;;;;;;-6.74;100.00;101530.91;5075690;28;20185;-81
2022/01/20 05:55:21;;;;;;;75.68;68.07;;;;;;;-6.54;100.00;101542.03;5076881;28;20045;-80
2022/01/20 05:57:48;;;;;;;82.88;74.03;;;;;;;-6.94;100.00;101528.47;5076079;28;20097;-80
2022/01/20 06:00:20;;;;;;;96.85;86.53;;;;;;;-6.56;100.00;101528.34;5075008;28;20040;-81
2022/01/20 06:05:32;;;;;;;84.28;76.40;;;;;;;-6.35;100.00;101526.44;5070518;28;20052;-80
2022/01/20 06:07:59;;;;;;;95.40;85.82;;;;;;;-6.52;100.00;101525.53;5080113;28;20079;-81
2022/01/20 06:10:26;;;;;;;88.78;79.45;;;;;;;-6.39;100.00;101515.41;5075614;28;20113;-80
2022/01/20 06:12:53;;;;;;;93.45;83.18;;;;;;;-6.14;100.00;101517.59;5073324;28;20044;-81
2022/01/20 06:15:21;;;;;;;93.97;83.85;;;;;;;-6.34;100.00;101521.19;5071849;28;20117;-81
2022/01/20 06:17:48;;;;;;;91.70;82.15;;;;;;;-6.13;100.00;101529.59;5074551;28;20052;-80
2022/01/20 06:20:15;;;;;;;92.03;82.28;;;;;;;-5.80;100.00;101521.81;5075095;28;20488;-81
2022/01/20 06:22:42;;;;;;;103.57;92.28;;;;;;;-5.44;100.00;101525.13;5074028;28;20056;-81
2022/01/20 06:25:09;;;;;;;102.22;91.38;;;;;;;-5.00;100.00;101525.25;5075064;28;20131;-80
2022/01/20 06:27:37;;;;;;;107.90;95.60;;;;;;;-5.12;100.00;101521.59;5073657;28;20190;-80
2022/01/20 06:30:04;;;;;;;106.13;94.78;;;;;;;-4.91;100.00;101516.13;5025215;28;20056;-80
2022/01/20 06:32:33;;;;;;;95.45;85.43;;;;;;;-4.47;100.00;101512.75;5060100;28;20703;-81
2022/01/20 06:35:00;;;;;;;85.95;77.93;;;;;;;0.14;100.00;101531.03;5041780;28;20049;-82
2022/01/20 06:37:27;;;;;;;106.93;85.30;;;;;;;6.22;100.00;101518.53;5039977;28;20049;-81
2022/01/20 06:39:53;;;;;;;100.03;85.03;;;;;;;7.64;100.00;101505.25;5045332;28;20556;-79
2022/01/20 06:42:21;;;;;;;115.45;99.75;;;;;;;0.80;100.00;101497.09;5035256;28;20057;-79
2022/01/20 06:44:51;;;;;;;104.00;92.78;;;;;;;4.19;100.00;101488.44;5028394;28;20061;-85
2022/01/20 06:47:20;;;;;;;113.75;92.68;;;;;;;1.79;100.00;101489.84;5030574;28;20464;-80
2022/01/20 06:49:49;;;;;;;106.72;90.38;;;;;;;-1.89;100.00;101495.41;5032028;28;20457;-82
2022/01/20 06:52:15;;;;;;;103.57;91.38;;;;;;;-1.89;100.00;101489.38;5027837;28;20045;-81
2022/01/20 06:54:42;;;;;;;96.13;85.60;;;;;;;-1.38;100.00;101497.09;5027224;28;20045;-81
2022/01/20 06:57:09;;;;;;;121.90;93.75;;;;;;;-0.93;100.00;101497.31;5031338;28;20131;-79
2022/01/20 06:59:36;;;;;;;132.73;109.38;;;;;;;-0.67;100.00;101491.94;5026765;28;20042;-82
2022/01/20 07:02:03;;;;;;;217.05;143.57;;;;;;;0.16;100.00;101500.41;5028489;28;20054;-81
2022/01/20 07:04:32;;;;;;;181.15;126.28;;;;;;;0.14;100.00;101504.06;5025450;28;20462;-82
2022/01/20 07:07:00;;;;;;;239.75;143.68;;;;;;;0.09;100.00;101514.03;5028559;28;20050;-79
2022/01/20 07:09:27;;;;;;;223.43;134.55;;;;;;;0.37;100.00;101507.50;5030825;28;20126;-80
2022/01/20 07:11:54;;;;;;;241.38;136.75;;;;;;;0.42;100.00;101503.59;5030104;28;20053;-79
2022/01/20 07:14:21;;;;;;;199.35;120.03;;;;;;;0.34;100.00;101498.13;5023949;28;20483;-82
2022/01/20 07:16:48;;;;;;;128.43;97.45;;;;;;;0.49;100.00;101474.34;5032339;28;20115;-81
2022/01/20 07:19:15;;;;;;;123.30;100.13;;;;;;;1.05;100.00;101474.16;5024871;28;20064;-82
2022/01/20 07:21:42;;;;;;;129.68;100.65;;;;;;;1.88;100.00;101467.28;5025050;28;20095;-81
2022/01/20 07:24:10;;;;;;;123.43;98.10;;;;;;;1.60;100.00;101462.59;5032473;28;20111;-83
2022/01/20 07:26:37;;;;;;;154.10;111.13;;;;;;;2.33;100.00;101453.75;5027738;28;20462;-81
2022/01/20 07:29:04;;;;;;;150.07;108.07;;;;;;;2.67;100.00;101457.72;5028022;28;20107;-81
2022/01/20 07:31:31;;;;;;;166.32;112.25;;;;;;;2.91;100.00;101446.81;5030250;28;20049;-80
2022/01/20 07:33:58;;;;;;;137.70;108.93;;;;;;;3.46;100.00;101440.13;5024562;28;20049;-79
2022/01/20 07:36:25;;;;;;;159.73;120.32;;;;;;;4.14;100.00;101432.81;5027685;28;20123;-80
2022/01/20 07:38:51;;;;;;;150.90;118.07;;;;;;;4.33;100.00;101438.00;5027861;28;20054;-80
2022/01/20 07:41:20;;;;;;;118.22;101.65;;;;;;;5.11;100.00;101436.56;5032653;28;20053;-82
2022/01/20 07:43:51;;;;;;;105.03;93.82;;;;;;;4.89;100.00;101437.88;5029778;28;20050;-85
2022/01/20 07:46:18;;;;;;;115.95;103.50;;;;;;;5.05;100.00;101430.09;5033273;28;20045;-80
2022/01/20 07:48:45;;;;;;;106.00;94.85;;;;;;;5.81;100.00;101431.25;5026873;28;20049;-81
2022/01/20 07:51:11;;;;;;;106.32;95.07;;;;;;;6.31;100.00;101427.88;5019059;28;20474;-81
2022/01/20 07:53:39;;;;;;;102.68;92.30;;;;;;;5.80;100.00;101427.81;5026327;28;20472;-81
2022/01/20 07:56:06;;;;;;;109.18;98.03;;;;;;;5.84;99.66;101423.03;5023524;28;20115;-80
2022/01/20 07:58:35;;;;;;;105.07;94.38;;;;;;;6.04;100.00;101426.31;5023073;28;20057;-83
2022/01/20 08:01:03;;;;;;;107.00;96.20;;;;;;;7.37;96.80;101437.72;5019409;28;20490;-83
2022/01/20 08:03:30;;;;;;;102.63;89.80;;;;;;;6.45;90.03;101434.38;5023877;28;20053;-81
2022/01/20 08:05:57;;;;;;;92.53;84.63;;;;;;;6.63;89.49;101437.69;5022868;28;20115;-79
2022/01/20 08:08:24;;;;;;;87.10;80.15;;;;;;;6.49;82.56;101425.94;5021863;28;20053;-80
2022/01/20 08:10:50;;;;;;;93.35;85.07;;;;;;;6.63;74.21;101429.78;5022585;28;20507;-80
2022/01/20 08:13:17;;;;;;;94.60;86.13;;;;;;;7.40;71.68;101426.81;5023362;28;20046;-80
2022/01/20 08:15:46;;;;;;;93.95;86.18;;;;;;;6.82;82.86;101423.38;5022155;28;20108;-80
2022/01/20 08:18:14;;;;;;;91.32;83.90;;;;;;;6.67;70.52;101417.91;5021192;28;20061;-81
2022/01/20 08:20:40;;;;;;;88.70;81.53;;;;;;;7.73;69.33;101423.09;5022463;28;20115;-80
2022/01/20 08:23:07;;;;;;;88.05;81.05;;;;;;;5.89;68.63;101413.69;5023043;28;20471;-79
2022/01/20 08:25:34;;;;;;;93.05;85.97;;;;;;;7.64;67.53;101418.00;5025142;28;20049;-81
2022/01/20 08:28:02;;;;;;;88.97;82.30;;;;;;;6.00;65.71;101415.25;5016044;28;20073;-81
2022/01/20 08:30:29;;;;;;;85.95;79.57;;;;;;;6.88;67.75;101412.97;5022443;28;20057;-81
2022/01/20 08:32:57;;;;;;;86.75;79.75;;;;;;;7.44;69.86;101418.34;5018847;28;20061;-79
2022/01/20 08:35:24;;;;;;;87.85;80.80;;;;;;;8.22;62.48;101411.50;5022766;28;20046;-80
2022/01/20 08:37:51;;;;;;;89.53;82.38;;;;;;;5.37;68.90;101410.28;5025839;28;20104;-82
2022/01/20 08:40:22;;;;;;;84.93;78.35;;;;;;;5.62;60.23;101414.69;5019368;28;20042;-79
2022/01/20 08:42:52;;;;;;;85.47;78.55;;;;;;;6.47;64.80;101420.00;5024857;28;20132;-79
2022/01/20 08:45:22;;;;;;;85.00;78.60;;;;;;;6.07;64.60;101413.63;5022213;28;20124;-80
2022/01/20 08:47:50;;;;;;;84.43;78.00;;;;;;;5.70;89.90;101422.66;5018952;28;20053;-80
2022/01/20 08:50:20;;;;;;;80.72;74.88;;;;;;;6.61;65.96;101413.28;5020459;28;20617;-80
2022/01/20 08:52:47;;;;;;;91.43;84.43;;;;;;;7.93;58.97;101420.06;5026801;28;20474;-81
2022/01/20 08:55:14;;;;;;;93.93;86.70;;;;;;;7.42;56.19;101419.53;5021040;28;20119;-81
2022/01/20 08:57:40;;;;;;;89.25;82.30;;;;;;;7.02;58.29;101422.06;5024345;28;20061;-79
2022/01/20 09:00:09;;;;;;;88.50;81.70;;;;;;;9.14;49.98;101417.69;5022472;28;20115;-81
2022/01/20 09:02:37;;;;;;;92.45;85.57;;;;;;;7.29;59.39;101422.69;5015967;28;20441;-79
2022/01/20 09:05:04;;;;;;;88.47;81.95;;;;;;;8.53;53.31;101416.78;5025126;28;20431;-80
2022/01/20 09:07:33;;;;;;;80.95;74.65;;;;;;;8.87;49.58;101421.72;5025311;28;20115;-81
2022/01/20 09:10:00;;;;;;;85.43;79.20;;;;;;;10.64;42.52;101417.41;5027932;28;20045;-80
2022/01/20 09:15:29;;;;;;;80.03;73.72;;;;;;;8.18;43.85;101400.44;4986973;28;20047;-80
2022/01/20 09:17:56;;;;;;;80.78;74.38;;;;;;;8.62;47.80;101397.22;5013870;28;20054;-81
2022/01/20 09:20:23;;;;;;;82.97;76.60;;;;;;;7.86;44.09;101392.63;5025832;28;20129;-80
2022/01/20 09:22:52;;;;;;;86.35;79.63;;;;;;;11.51;40.17;101389.69;5028761;28;20199;-81
2022/01/20 09:25:21;;;;;;;81.90;75.72;;;;;;;9.75;38.12;101385.72;5023962;28;20046;-80
2022/01/20 09:27:48;;;;;;;85.78;79.38;;;;;;;10.41;35.86;101376.91;5027664;28;20723;-81
2022/01/20 09:30:18;;;;;;;86.53;80.13;;;;;;;9.64;38.11;101378.22;5027330;28;20045;-82
2022/01/20 09:32:56;;;;;;;85.28;78.75;;;;;;;8.34;37.21;101369.56;5031504;28;20095;-79
2022/01/20 09:35:24;;;;;;;83.05;76.75;;;;;;;8.60;39.13;101367.44;5024296;28;20486;-80
2022/01/20 09:37:52;;;;;;;83.60;77.18;;;;;;;10.35;34.50;101365.22;5026783;28;20049;-79
2022/01/20 09:40:18;;;;;;;84.18;77.95;;;;;;;8.02;38.07;101364.31;5026005;28;20056;-80
2022/01/20 09:42:45;;;;;;;83.47;77.18;;;;;;;11.84;35.02;101354.44;5027427;28;20037;-79
2022/01/20 09:45:12;;;;;;;79.35;73.35;;;;;;;8.84;34.96;101347.88;5025213;28;20120;-82
2022/01/20 09:47:39;;;;;;;83.07;76.97;;;;;;;9.29;34.73;101339.97;5022576;28;20053;-81
2022/01/20 09:50:06;;;;;;;81.88;75.88;;;;;;;9.42;33.55;101342.84;5024559;28;20057;-80
2022/01/20 09:52:33;;;;;;;85.22;78.93;;;;;;;9.06;32.94;101332.13;5023926;28;20072;-79
2022/01/20 09:55:01;;;;;;;82.10;75.72;;;;;;;8.76;35.69;101333.88;5025404;28;20053;-81
2022/01/20 09:57:28;;;;;;;81.82;75.38;;;;;;;9.16;37.16;101335.31;5030357;28;20061;-80
2022/01/20 09:59:54;;;;;;;82.90;76.70;;;;;;;9.78;34.92;101316.38;5024957;28;20053;-79
2022/01/20 10:02:22;;;;;;;82.90;76.70;;;;;;;9.29;34.28;101316.13;5031782;28;20045;-78
2022/01/20 10:04:49;;;;;;;81.95;75.90;;;;;;;9.46;33.86;101306.97;5026233;28;20060;-78
2022/01/20 10:07:16;;;;;;;79.28;73.45;;;;;;;9.59;32.85;101307.19;5025211;28;20061;-81
2022/01/20 10:09:47;;;;;;;79.85;73.45;;;;;;;9.05;35.42;101307.44;5025588;28;20568;-80
2022/01/20 10:12:18;;;;;;;81.55;75.45;;;;;;;11.04;32.77;101300.78;5024566;28;20131;-78
2022/01/20 10:14:47;;;;;;;86.00;79.47;;;;;;;8.48;37.19;101281.50;5026770;28;20050;-81
2022/01/20 10:17:16;;;;;;;81.65;75.35;;;;;;;10.34;33.01;101285.75;5017976;28;20453;-81
2022/01/20 10:19:43;;;;;;;79.13;73.03;;;;;;;9.20;35.52;101278.31;5017735;28;20555;-80
2022/01/20 10:22:15;;;;;;;84.18;77.82;;;;;;;8.59;34.31;101283.69;5025302;28;20054;-80
2022/01/20 10:24:43;;;;;;;80.40;74.40;;;;;;;9.48;33.87;101264.41;5025352;28;20534;-79
2022/01/20 10:27:11;;;;;;;83.20;76.78;;;;;;;9.36;34.74;101269.34;5016968;28;20054;-82
2022/01/20 10:29:40;;;;;;;82.13;75.55;;;;;;;9.23;37.57;101271.78;5025772;28;20124;-82
2022/01/20 10:32:07;;;;;;;82.43;75.80;;;;;;;8.36;38.27;101261.72;5024140;28;20455;-80
2022/01/20 10:34:36;;;;;;;83.47;77.05;;;;;;;9.33;36.39;101270.53;5026927;28;20049;-80
2022/01/20 10:37:06;;;;;;;85.60;79.03;;;;;;;9.45;37.68;101265.56;5020894;28;20140;-80
2022/01/20 10:39:37;;;;;;;83.00;76.65;;;;;;;9.21;43.39;101256.09;5029099;28;20111;-82
2022/01/20 10:42:06;;;;;;;81.55;75.40;;;;;;;9.46;41.03;101255.78;5020761;28;20042;-80
2022/01/20 10:44:46;;;;;;;84.70;78.20;;;;;;;10.02;40.62;101262.16;5024775;28;20042;-80
2022/01/20 10:47:14;;;;;;;80.43;73.97;;;;;;;10.30;37.99;101272.84;5030636;28;20057;-78
2022/01/20 10:49:42;;;;;;;86.05;79.53;;;;;;;8.97;40.95;101262.47;5025917;28;20475;-80
2022/01/20 10:52:10;;;;;;;84.95;77.97;;;;;;;9.77;38.79;101261.69;5024611;28;20124;-80
2022/01/20 10:54:40;;;;;;;86.60;79.90;;;;;;;10.37;39.60;101251.66;5020836;28;20183;-78
2022/01/20 10:57:08;;;;;;;83.45;77.07;;;;;;;9.66;41.54;101243.59;5014745;28;20112;-79
2022/01/20 10:59:46;;;;;;;83.07;76.97;;;;;;;11.00;37.43;101251.72;5022190;28;20068;-79
2022/01/20 11:02:14;;;;;;;83.03;76.72;;;;;;;10.21;39.13;101235.97;5032355;28;20102;-77
2022/01/20 11:04:41;;;;;;;82.10;75.80;;;;;;;9.42;40.31;101231.47;5025726;28;20050;-80
2022/01/20 11:07:09;;;;;;;87.53;80.90;;;;;;;8.92;45.46;101233.88;5024008;28;20115;-79
2022/01/20 11:09:41;;;;;;;90.65;84.03;;;;;;;9.29;42.37;101228.66;5025266;28;20132;-78
2022/01/20 11:12:12;;;;;;;78.03;71.78;;;;;;;9.80;40.91;101228.63;5022730;28;20049;-80
2022/01/20 11:14:39;;;;;;;80.35;73.95;;;;;;;9.62;42.80;101227.25;5022522;28;20049;-80
2022/01/20 11:17:06;;;;;;;88.90;82.40;;;;;;;10.37;39.27;101230.41;5032471;28;20123;-80
2022/01/20 11:19:39;;;;;;;85.00;78.55;;;;;;;11.31;39.70;101224.66;5024238;28;20127;-78
2022/01/20 11:22:08;;;;;;;83.80;77.60;;;;;;;10.63;39.20;101237.78;5024155;28;20049;-79
2022/01/20 11:24:35;;;;;;;92.28;85.38;;;;;;;9.68;43.21;101233.59;5023186;28;20120;-80
2022/01/20 11:27:04;;;;;;;88.53;81.88;;;;;;;9.53;44.66;101208.94;5022606;28;20485;-79
2022/01/20 11:29:49;;;;;;;84.47;77.82;;;;;;;10.94;42.88;101212.63;5021174;28;20465;-79
2022/01/20 11:32:18;;;;;;;88.65;81.95;;;;;;;12.00;38.57;101220.19;5030993;28;20045;-78
2022/01/20 11:34:57;;;;;;;88.20;81.18;;;;;;;10.49;43.22;101220.09;5025198;28;20445;-78
2022/01/20 11:37:24;;;;;;;87.32;80.88;;;;;;;10.43;45.26;101216.38;5025692;28;20038;-78
2022/01/20 11:39:52;;;;;;;89.35;82.90;;;;;;;10.76;44.46;101200.66;5023588;28;20056;-81
2022/01/20 11:42:25;;;;;;;92.93;85.55;;;;;;;10.14;43.47;101193.44;5024576;28;20132;-78
2022/01/20 11:44:53;;;;;;;89.82;83.03;;;;;;;11.65;41.21;101183.88;5024849;28;20568;-80
2022/01/20 11:47:30;;;;;;;90.22;83.63;;;;;;;9.43;48.51;101171.31;5017311;28;20376;-78
2022/01/20 11:49:59;;;;;;;87.25;80.93;;;;;;;10.70;45.86;101172.22;5021660;28;20141;-82
2022/01/20 11:52:27;;;;;;;88.07;81.43;;;;;;;10.06;48.15;101173.16;5024071;28;20107;-79
2022/01/20 11:54:54;;;;;;;89.30;82.45;;;;;;;10.70;46.04;101156.28;5022985;28;20076;-80
2022/01/20 11:57:27;;;;;;;86.65;80.40;;;;;;;10.16;47.03;101156.09;5022595;28;20057;-80
2022/01/20 11:59:56;;;;;;;;;;;;;;;10.13;51.68;101154.63;5014350;28;20061;-79
2022/01/20 12:02:27;;;;;;;83.28;76.88;;;;;;;11.59;44.84;101146.59;5016562;28;19921;-79
2022/01/20 12:04:54;;;;;;;86.13;79.57;;;;;;;10.65;47.16;101144.59;5024912;28;20053;-81
2022/01/20 12:07:26;;;;;;;93.40;86.43;;;;;;;10.06;48.94;101143.97;5024036;28;20483;-78